sensor_id;sensor_type;location;lat;lon;timestamp;pressure;altitude;pressure_sealevel;temperature;humidity
67099;BME280;54288;53.046;5.668;2022-10-18T00:01:11;102718.94;;;12.76;100.00
67099;BME280;54288;53.046;5.668;2022-10-18T00:03:37;102701.41;;;12.73;100.00
67099;BME280;54288;53.046;5.668;2022-10-18T00:06:05;102696.19;;;12.72;100.00
67099;BME280;54288;53.046;5.668;2022-10-18T00:08:35;102699.69;;;12.72;100.00
67099;BME280;54288;53.046;5.668;2022-10-18T00:11:01;102712.81;;;12.72;100.00
67099;BME280;54288;53.046;5.668;2022-10-18T00:13:27;102705.84;;;12.68;100.00
67099;BME280;54288;53.046;5.668;2022-10-18T00:15:56;102704.06;;;12.69;100.00
67099;BME280;54288;53.046;5.668;2022-10-18T00:18:23;102711.94;;;12.73;100.00
67099;BME280;54288;53.046;5.668;2022-10-18T00:21:18;102683.91;;;12.56;100.00
67099;BME280;54288;53.046;5.668;2022-10-18T00:23:46;102699.66;;;12.65;100.00
67099;BME280;54288;53.046;5.668;2022-10-18T00:26:13;102709.31;;;12.75;100.00
67099;BME280;54288;53.046;5.668;2022-10-18T00:28:40;102703.19;;;12.70;100.00
67099;BME280;54288;53.046;5.668;2022-10-18T00:34:23;102710.19;;;12.68;100.00
67099;BME280;54288;53.046;5.668;2022-10-18T00:36:48;102683.91;;;12.51;100.00
67099;BME280;54288;53.046;5.668;2022-10-18T00:39:17;102684.78;;;12.53;100.00
67099;BME280;54288;53.046;5.668;2022-10-18T00:41:44;102711.09;;;12.68;100.00
67099;BME280;54288;53.046;5.668;2022-10-18T00:46:47;102716.34;;;12.62;100.00
67099;BME280;54288;53.046;5.668;2022-10-18T00:49:23;102676.03;;;12.44;100.00
67099;BME280;54288;53.046;5.668;2022-10-18T00:55:16;102696.16;;;12.49;100.00
67099;BME280;54288;53.046;5.668;2022-10-18T00:57:44;102688.28;;;12.49;100.00
67099;BME280;54288;53.046;5.668;2022-10-18T01:00:10;102705.78;;;12.50;100.00
67099;BME280;54288;53.046;5.668;2022-10-18T01:02:37;102680.38;;;12.37;100.00
67099;BME280;54288;53.046;5.668;2022-10-18T01:05:03;102695.28;;;12.44;100.00
67099;BME280;54288;53.046;5.668;2022-10-18T01:32:04;102731.22;;;12.50;100.00
67099;BME280;54288;53.046;5.668;2022-10-18T01:34:35;102733.84;;;12.51;100.00
67099;BME280;54288;53.046;5.668;2022-10-18T01:37:06;102718.94;;;12.52;100.00
67099;BME280;54288;53.046;5.668;2022-10-18T01:39:36;102704.94;;;12.44;100.00
67099;BME280;54288;53.046;5.668;2022-10-18T01:42:09;102708.44;;;12.43;100.00
67099;BME280;54288;53.046;5.668;2022-10-18T01:44:39;102718.94;;;12.52;100.00
67099;BME280;54288;53.046;5.668;2022-10-18T01:47:09;102722.44;;;12.48;100.00
67099;BME280;54288;53.046;5.668;2022-10-18T01:49:35;102711.03;;;12.38;100.00
67099;BME280;54288;53.046;5.668;2022-10-18T01:52:01;102711.91;;;12.39;100.00
67099;BME280;54288;53.046;5.668;2022-10-18T02:00:49;102680.34;;;12.15;100.00
67099;BME280;54288;53.046;5.668;2022-10-18T02:03:26;102683.84;;;12.17;100.00
67099;BME280;54288;53.046;5.668;2022-10-18T02:12:10;102700.47;;;12.19;100.00
67099;BME280;54288;53.046;5.668;2022-10-18T02:14:41;102697.00;;;12.18;100.00
67099;BME280;54288;53.046;5.668;2022-10-18T02:17:11;102719.75;;;12.19;100.00
67099;BME280;54288;53.046;5.668;2022-10-18T02:19:45;102696.94;;;12.02;100.00
67099;BME280;54288;53.046;5.668;2022-10-18T02:22:14;102686.41;;;11.92;100.00
67099;BME280;54288;53.046;5.668;2022-10-18T02:24:45;102702.16;;;11.93;100.00
67099;BME280;54288;53.046;5.668;2022-10-18T02:27:12;102713.53;;;11.92;100.00
67099;BME280;54288;53.046;5.668;2022-10-18T02:29:39;102696.88;;;11.81;100.00
67099;BME280;54288;53.046;5.668;2022-10-18T02:35:18;102712.56;;;11.77;100.00
67099;BME280;54288;53.046;5.668;2022-10-18T02:37:48;102718.75;;;11.83;100.00
67099;BME280;54288;53.046;5.668;2022-10-18T02:43:31;102672.22;;;11.57;100.00
67099;BME280;54288;53.046;5.668;2022-10-18T02:45:57;102722.22;;;11.75;100.00
67099;BME280;54288;53.046;5.668;2022-10-18T02:51:09;102729.16;;;11.65;100.00
67099;BME280;54288;53.046;5.668;2022-10-18T03:08:19;102719.28;;;11.30;100.00
67099;BME280;54288;53.046;5.668;2022-10-18T07:52:06;102895.03;;;12.58;100.00
67099;BME280;54288;53.046;5.668;2022-10-18T07:54:32;102880.16;;;12.67;100.00
67099;BME280;54288;53.046;5.668;2022-10-18T07:56:58;102883.75;;;12.83;100.00
67099;BME280;54288;53.046;5.668;2022-10-18T07:59:23;102886.38;;;12.86;100.00
67099;BME280;54288;53.046;5.668;2022-10-18T08:01:49;102925.00;;;13.05;100.00
67099;BME280;54288;53.046;5.668;2022-10-18T08:04:15;102915.41;;;13.13;100.00
67099;BME280;54288;53.046;5.668;2022-10-18T08:06:41;102913.66;;;13.21;100.00
67099;BME280;54288;53.046;5.668;2022-10-18T08:09:06;102903.16;;;13.30;100.00
67099;BME280;54288;53.046;5.668;2022-10-18T08:11:32;102911.03;;;13.21;100.00
67099;BME280;54288;53.046;5.668;2022-10-18T08:13:58;102896.13;;;13.20;100.00
67099;BME280;54288;53.046;5.668;2022-10-18T08:16:28;102908.41;;;13.33;100.00
67099;BME280;54288;53.046;5.668;2022-10-18T08:18:59;102918.94;;;13.27;100.00
67099;BME280;54288;53.046;5.668;2022-10-18T08:21:25;102938.22;;;13.20;100.00
67099;BME280;54288;53.046;5.668;2022-10-18T08:23:51;102933.88;;;13.28;100.00
67099;BME280;54288;53.046;5.668;2022-10-18T08:26:20;102897.00;;;13.14;100.00
67099;BME280;54288;53.046;5.668;2022-10-18T08:28:46;102932.13;;;13.43;100.00
67099;BME280;54288;53.046;5.668;2022-10-18T08:31:14;102929.50;;;13.57;100.00
67099;BME280;54288;53.046;5.668;2022-10-18T08:33:44;102942.66;;;13.78;100.00
67099;BME280;54288;53.046;5.668;2022-10-18T08:36:12;102933.88;;;13.82;100.00
67099;BME280;54288;53.046;5.668;2022-10-18T08:38:40;102940.88;;;14.10;100.00
67099;BME280;54288;53.046;5.668;2022-10-18T08:46:46;102940.75;;;14.65;100.00
67099;BME280;54288;53.046;5.668;2022-10-18T08:49:36;102949.53;;;14.72;99.20
67099;BME280;54288;53.046;5.668;2022-10-18T08:52:34;102962.63;;;14.90;99.00
67099;BME280;54288;53.046;5.668;2022-10-18T08:57:45;102939.69;;;15.04;97.91
67099;BME280;54288;53.046;5.668;2022-10-18T09:00:21;102955.41;;;15.26;97.85
67099;BME280;54288;53.046;5.668;2022-10-18T09:03:20;102952.66;;;15.43;96.40
67099;BME280;54288;53.046;5.668;2022-10-18T09:05:51;102948.19;;;15.57;95.24
67099;BME280;54288;53.046;5.668;2022-10-18T09:08:31;102964.06;;;15.51;93.41
67099;BME280;54288;53.046;5.668;2022-10-18T09:11:27;102948.94;;;15.71;96.39
67099;BME280;54288;53.046;5.668;2022-10-18T09:16:27;102948.56;;;16.11;92.74
67099;BME280;54288;53.046;5.668;2022-10-18T09:21:54;102972.25;;;16.25;86.17
67099;BME280;54288;53.046;5.668;2022-10-18T09:24:41;102956.56;;;16.07;85.60
67099;BME280;54288;53.046;5.668;2022-10-18T09:27:16;102958.31;;;16.06;87.38
67099;BME280;54288;53.046;5.668;2022-10-18T09:30:06;102961.69;;;16.20;86.59
67099;BME280;54288;53.046;5.668;2022-10-18T09:32:49;102957.22;;;16.28;86.83
67099;BME280;54288;53.046;5.668;2022-10-18T09:35:20;102956.38;;;16.22;84.17
67099;BME280;54288;53.046;5.668;2022-10-18T09:37:49;102967.72;;;16.33;84.95
67099;BME280;54288;53.046;5.668;2022-10-18T09:40:25;102961.50;;;16.43;83.48
67099;BME280;54288;53.046;5.668;2022-10-18T09:43:00;102968.38;;;16.59;83.55
67099;BME280;54288;53.046;5.668;2022-10-18T09:45:47;102979.88;;;16.55;81.41
67099;BME280;54288;53.046;5.668;2022-10-18T09:48:21;102970.63;;;16.06;83.48
67099;BME280;54288;53.046;5.668;2022-10-18T09:50:56;102971.41;;;16.18;84.47
67099;BME280;54288;53.046;5.668;2022-10-18T09:53:38;102985.16;;;16.58;81.15
67099;BME280;54288;53.046;5.668;2022-10-18T09:56:10;102985.75;;;16.81;80.67
67099;BME280;54288;53.046;5.668;2022-10-18T09:58:42;102983.69;;;17.04;78.36
67099;BME280;54288;53.046;5.668;2022-10-18T10:01:12;102990.41;;;17.29;78.84
67099;BME280;54288;53.046;5.668;2022-10-18T10:03:39;102995.88;;;17.15;77.94
67099;BME280;54288;53.046;5.668;2022-10-18T10:06:26;103002.75;;;17.30;76.15
67099;BME280;54288;53.046;5.668;2022-10-18T10:14:19;102999.25;;;17.28;76.15
67099;BME280;54288;53.046;5.668;2022-10-18T10:19:18;102998.63;;;17.08;75.83
67099;BME280;54288;53.046;5.668;2022-10-18T10:21:47;103011.25;;;16.88;77.33
67099;BME280;54288;53.046;5.668;2022-10-18T10:27:05;103005.78;;;17.00;77.01
67099;BME280;54288;53.046;5.668;2022-10-18T10:29:49;103014.63;;;16.99;78.20
67099;BME280;54288;53.046;5.668;2022-10-18T10:32:18;103022.75;;;16.84;78.03
67099;BME280;54288;53.046;5.668;2022-10-18T10:34:44;103017.47;;;16.84;78.40
67099;BME280;54288;53.046;5.668;2022-10-18T10:40:14;103025.81;;;16.45;80.39
67099;BME280;54288;53.046;5.668;2022-10-18T10:45:23;103031.53;;;15.98;81.58
67099;BME280;54288;53.046;5.668;2022-10-18T10:47:52;103021.00;;;15.91;80.72
67099;BME280;54288;53.046;5.668;2022-10-18T10:50:26;103028.53;;;16.36;79.11
67099;BME280;54288;53.046;5.668;2022-10-18T10:52:53;103036.34;;;16.51;79.24
67099;BME280;54288;53.046;5.668;2022-10-18T10:55:25;103023.81;;;16.68;78.31
67099;BME280;54288;53.046;5.668;2022-10-18T10:57:54;103036.75;;;16.95;75.88
67099;BME280;54288;53.046;5.668;2022-10-18T11:05:50;103049.56;;;16.54;76.71
67099;BME280;54288;53.046;5.668;2022-10-18T11:08:24;103044.47;;;16.28;78.46
67099;BME280;54288;53.046;5.668;2022-10-18T11:11:18;103040.19;;;16.12;78.08
67099;BME280;54288;53.046;5.668;2022-10-18T11:16:18;103046.50;;;15.98;77.25
67099;BME280;54288;53.046;5.668;2022-10-18T11:18:50;103047.47;;;15.83;80.34
67099;BME280;54288;53.046;5.668;2022-10-18T11:21:24;103040.59;;;15.63;81.29
67099;BME280;54288;53.046;5.668;2022-10-18T11:23:52;103045.69;;;15.90;81.42
67099;BME280;54288;53.046;5.668;2022-10-18T11:53:54;103052.38;;;17.16;74.05
67099;BME280;54288;53.046;5.668;2022-10-18T11:56:27;103052.47;;;17.07;71.76
67099;BME280;54288;53.046;5.668;2022-10-18T12:01:33;103050.53;;;16.45;75.37
67099;BME280;54288;53.046;5.668;2022-10-18T12:04:14;103040.78;;;16.50;75.11
67099;BME280;54288;53.046;5.668;2022-10-18T12:06:46;103043.84;;;16.90;73.26
67099;BME280;54288;53.046;5.668;2022-10-18T12:12:27;103035.22;;;17.45;71.74
67099;BME280;54288;53.046;5.668;2022-10-18T12:15:12;103037.34;;;17.81;71.45
67099;BME280;54288;53.046;5.668;2022-10-18T12:17:46;103031.44;;;17.61;70.25
67099;BME280;54288;53.046;5.668;2022-10-18T12:23:01;103038.38;;;17.06;72.17
67099;BME280;54288;53.046;5.668;2022-10-18T12:25:32;103029.56;;;17.04;71.75
67099;BME280;54288;53.046;5.668;2022-10-18T12:33:21;103034.34;;;17.45;72.03
67099;BME280;54288;53.046;5.668;2022-10-18T12:38:43;103031.44;;;16.96;72.62
67099;BME280;54288;53.046;5.668;2022-10-18T12:41:21;103037.66;;;16.92;73.63
67099;BME280;54288;53.046;5.668;2022-10-18T12:44:02;103042.53;;;16.48;72.56
67099;BME280;54288;53.046;5.668;2022-10-18T12:46:56;103036.72;;;16.09;73.14
67099;BME280;54288;53.046;5.668;2022-10-18T12:49:28;103046.38;;;16.13;75.07
67099;BME280;54288;53.046;5.668;2022-10-18T12:55:04;103048.81;;;16.34;72.75
67099;BME280;54288;53.046;5.668;2022-10-18T13:05:54;103041.84;;;16.28;71.95
67099;BME280;54288;53.046;5.668;2022-10-18T13:28:29;103042.63;;;16.41;69.71
67099;BME280;54288;53.046;5.668;2022-10-18T13:33:41;103032.66;;;16.65;70.30
67099;BME280;54288;53.046;5.668;2022-10-18T13:41:28;103028.56;;;16.33;72.74
67099;BME280;54288;53.046;5.668;2022-10-18T13:44:23;103036.44;;;16.37;72.41
67099;BME280;54288;53.046;5.668;2022-10-18T13:49:55;103038.28;;;16.32;71.94
67099;BME280;54288;53.046;5.668;2022-10-18T14:03:28;103056.22;;;15.96;72.55
67099;BME280;54288;53.046;5.668;2022-10-18T14:06:14;103055.50;;;15.70;74.81
67099;BME280;54288;53.046;5.668;2022-10-18T14:08:59;103052.81;;;15.77;74.95
67099;BME280;54288;53.046;5.668;2022-10-18T14:11:37;103052.81;;;15.74;75.03
67099;BME280;54288;53.046;5.668;2022-10-18T14:14:15;103050.25;;;15.64;74.66
67099;BME280;54288;53.046;5.668;2022-10-18T14:16:57;103059.03;;;15.69;75.64
67099;BME280;54288;53.046;5.668;2022-10-18T14:21:56;103052.94;;;15.58;75.23
67099;BME280;54288;53.046;5.668;2022-10-18T14:24:26;103053.81;;;15.54;76.25
67099;BME280;54288;53.046;5.668;2022-10-18T14:27:17;103048.50;;;15.60;75.96
67099;BME280;54288;53.046;5.668;2022-10-18T14:29:43;103060.84;;;15.56;75.42
67099;BME280;54288;53.046;5.668;2022-10-18T14:32:27;103066.19;;;15.49;75.53
67099;BME280;54288;53.046;5.668;2022-10-18T14:34:55;103062.72;;;15.32;75.32
67099;BME280;54288;53.046;5.668;2022-10-18T14:37:27;103073.31;;;15.23;76.83
67099;BME280;54288;53.046;5.668;2022-10-18T14:39:53;103051.44;;;14.92;77.48
67099;BME280;54288;53.046;5.668;2022-10-18T14:42:22;103073.44;;;14.93;78.53
67099;BME280;54288;53.046;5.668;2022-10-18T14:44:49;103073.44;;;14.81;79.05
67099;BME280;54288;53.046;5.668;2022-10-18T14:47:35;103068.19;;;14.84;79.01
67099;BME280;54288;53.046;5.668;2022-10-18T14:50:01;103066.44;;;14.75;79.00
67099;BME280;54288;53.046;5.668;2022-10-18T14:52:30;103063.78;;;14.78;80.02
67099;BME280;54288;53.046;5.668;2022-10-18T14:54:57;103057.63;;;14.75;80.37
67099;BME280;54288;53.046;5.668;2022-10-18T14:57:31;103055.03;;;14.64;79.91
67099;BME280;54288;53.046;5.668;2022-10-18T15:00:00;103070.84;;;14.78;79.23
67099;BME280;54288;53.046;5.668;2022-10-18T15:02:29;103064.66;;;14.83;79.53
67099;BME280;54288;53.046;5.668;2022-10-18T15:04:59;103048.84;;;14.79;79.01
67099;BME280;54288;53.046;5.668;2022-10-18T15:07:30;103055.88;;;14.74;78.37
67099;BME280;54288;53.046;5.668;2022-10-18T15:09:58;103073.47;;;14.70;80.10
67099;BME280;54288;53.046;5.668;2022-10-18T15:12:26;103070.84;;;14.69;80.97
67099;BME280;54288;53.046;5.668;2022-10-18T15:14:54;103062.97;;;14.51;79.70
67099;BME280;54288;53.046;5.668;2022-10-18T15:17:27;103050.69;;;14.38;80.01
67099;BME280;54288;53.046;5.668;2022-10-18T15:20:22;103061.22;;;14.41;79.44
67099;BME280;54288;53.046;5.668;2022-10-18T15:22:50;103048.91;;;14.32;80.66
67099;BME280;54288;53.046;5.668;2022-10-18T15:25:28;103053.31;;;14.36;81.96
67099;BME280;54288;53.046;5.668;2022-10-18T15:28:00;103050.69;;;14.38;81.97
67099;BME280;54288;53.046;5.668;2022-10-18T15:30:38;103039.25;;;14.31;81.55
67099;BME280;54288;53.046;5.668;2022-10-18T15:33:06;103064.72;;;14.46;80.44
67099;BME280;54288;53.046;5.668;2022-10-18T15:35:37;103053.31;;;14.41;81.55
67099;BME280;54288;53.046;5.668;2022-10-18T15:38:26;103057.72;;;14.42;81.53
67099;BME280;54288;53.046;5.668;2022-10-18T15:40:52;103056.81;;;14.32;81.97
67099;BME280;54288;53.046;5.668;2022-10-18T15:46:01;103066.47;;;14.05;82.85
67099;BME280;54288;53.046;5.668;2022-10-18T15:48:40;103062.06;;;13.92;82.17
67099;BME280;54288;53.046;5.668;2022-10-18T15:51:39;103056.75;;;13.75;84.28
67099;BME280;54288;53.046;5.668;2022-10-18T15:54:17;103060.25;;;13.58;83.50
67099;BME280;54288;53.046;5.668;2022-10-18T15:56:44;103048.81;;;13.50;82.70
67099;BME280;54288;53.046;5.668;2022-10-18T15:59:37;103055.84;;;13.48;81.92
67099;BME280;54288;53.046;5.668;2022-10-18T16:02:14;103054.94;;;13.38;82.71
67099;BME280;54288;53.046;5.668;2022-10-18T16:04:40;103056.72;;;13.47;81.88
67099;BME280;54288;53.046;5.668;2022-10-18T16:07:05;103063.72;;;13.46;83.33
67099;BME280;54288;53.046;5.668;2022-10-18T16:09:31;103054.94;;;13.40;83.47
67099;BME280;54288;53.046;5.668;2022-10-18T16:11:57;103059.34;;;13.42;82.57
67099;BME280;54288;53.046;5.668;2022-10-18T16:14:24;103061.06;;;13.39;84.24
67099;BME280;54288;53.046;5.668;2022-10-18T16:16:54;103057.59;;;13.40;83.05
67099;BME280;54288;53.046;5.668;2022-10-18T16:19:20;103053.16;;;13.34;84.79
67099;BME280;54288;53.046;5.668;2022-10-18T16:21:47;103064.56;;;13.35;84.02
67099;BME280;54288;53.046;5.668;2022-10-18T16:24:13;103069.84;;;13.35;85.80
67099;BME280;54288;53.046;5.668;2022-10-18T16:26:39;103066.31;;;13.36;86.19
67099;BME280;54288;53.046;5.668;2022-10-18T16:29:05;103072.44;;;13.32;86.36
67099;BME280;54288;53.046;5.668;2022-10-18T16:31:33;103078.63;;;13.34;86.62
67099;BME280;54288;53.046;5.668;2022-10-18T16:33:59;103080.31;;;13.23;88.48
67099;BME280;54288;53.046;5.668;2022-10-18T16:36:30;103084.69;;;13.19;89.63
67099;BME280;54288;53.046;5.668;2022-10-18T16:38:59;103087.28;;;13.10;88.45
67099;BME280;54288;53.046;5.668;2022-10-18T16:41:25;103087.22;;;13.03;86.72
67099;BME280;54288;53.046;5.668;2022-10-18T16:43:51;103096.88;;;13.02;87.54
67099;BME280;54288;53.046;5.668;2022-10-18T16:46:20;103101.25;;;13.02;87.07
67099;BME280;54288;53.046;5.668;2022-10-18T16:48:47;103095.09;;;12.98;86.67
67099;BME280;54288;53.046;5.668;2022-10-18T16:51:14;103095.09;;;13.01;87.06
67099;BME280;54288;53.046;5.668;2022-10-18T16:53:40;103105.66;;;13.04;86.41
67099;BME280;54288;53.046;5.668;2022-10-18T16:56:15;103094.19;;;12.95;87.08
67099;BME280;54288;53.046;5.668;2022-10-18T16:58:42;103117.03;;;13.02;86.59
67099;BME280;54288;53.046;5.668;2022-10-18T17:01:13;103109.91;;;12.92;87.27
67099;BME280;54288;53.046;5.668;2022-10-18T17:03:40;103123.09;;;12.93;86.28
67099;BME280;54288;53.046;5.668;2022-10-18T17:06:05;103119.59;;;12.94;86.43
67099;BME280;54288;53.046;5.668;2022-10-18T17:08:37;103119.50;;;12.81;86.16
67099;BME280;54288;53.046;5.668;2022-10-18T17:11:03;103122.13;;;12.81;84.43
67099;BME280;54288;53.046;5.668;2022-10-18T17:13:29;103119.47;;;12.76;85.93
67099;BME280;54288;53.046;5.668;2022-10-18T17:15:54;103128.28;;;12.83;85.38
67099;BME280;54288;53.046;5.668;2022-10-18T17:18:23;103125.66;;;12.83;84.56
67099;BME280;54288;53.046;5.668;2022-10-18T17:20:50;103120.41;;;12.86;84.59
67099;BME280;54288;53.046;5.668;2022-10-18T17:23:17;103123.03;;;12.86;84.24
67099;BME280;54288;53.046;5.668;2022-10-18T17:25:42;103127.44;;;12.85;84.90
67099;BME280;54288;53.046;5.668;2022-10-18T17:28:12;103123.03;;;12.83;84.92
67099;BME280;54288;53.046;5.668;2022-10-18T17:30:40;103127.41;;;12.79;87.61
67099;BME280;54288;53.046;5.668;2022-10-18T17:33:06;103120.28;;;12.68;85.45
67099;BME280;54288;53.046;5.668;2022-10-18T17:35:31;103136.00;;;12.60;86.65
67099;BME280;54288;53.046;5.668;2022-10-18T17:37:57;103126.19;;;12.37;86.98
67099;BME280;54288;53.046;5.668;2022-10-18T17:40:23;103143.75;;;12.44;88.73
67099;BME280;54288;53.046;5.668;2022-10-18T17:42:52;103139.25;;;12.31;88.07
67099;BME280;54288;53.046;5.668;2022-10-18T17:45:19;103162.09;;;12.38;88.73
67099;BME280;54288;53.046;5.668;2022-10-18T17:47:46;103147.13;;;12.31;89.15
67099;BME280;54288;53.046;5.668;2022-10-18T17:50:12;103162.97;;;12.37;88.50
67099;BME280;54288;53.046;5.668;2022-10-18T17:52:46;103162.97;;;12.38;87.54
67099;BME280;54288;53.046;5.668;2022-10-18T17:55:13;103159.47;;;12.38;88.32
67099;BME280;54288;53.046;5.668;2022-10-18T17:57:40;103163.03;;;12.43;89.28
67099;BME280;54288;53.046;5.668;2022-10-18T18:00:08;103149.78;;;12.34;88.57
67099;BME280;54288;53.046;5.668;2022-10-18T18:02:40;103163.88;;;12.42;88.47
67099;BME280;54288;53.046;5.668;2022-10-18T18:05:05;103153.38;;;12.40;89.57
67099;BME280;54288;53.046;5.668;2022-10-18T18:07:31;103152.44;;;12.34;90.75
67099;BME280;54288;53.046;5.668;2022-10-18T18:09:57;103155.88;;;12.28;90.57
67099;BME280;54288;53.046;5.668;2022-10-18T18:12:23;103127.78;;;12.21;88.20
67099;BME280;54288;53.046;5.668;2022-10-18T18:14:48;103155.00;;;12.28;90.33
67099;BME280;54288;53.046;5.668;2022-10-18T18:17:14;103168.97;;;12.24;90.77
67099;BME280;54288;53.046;5.668;2022-10-18T18:19:39;103166.25;;;12.13;91.04
67099;BME280;54288;53.046;5.668;2022-10-18T18:22:06;103147.66;;;11.96;91.43
67099;BME280;54288;53.046;5.668;2022-10-18T18:24:31;103169.63;;;12.03;90.32
67099;BME280;54288;53.046;5.668;2022-10-18T18:26:57;103162.53;;;11.95;90.36
67099;BME280;54288;53.046;5.668;2022-10-18T18:29:25;103166.00;;;11.93;90.90
67099;BME280;54288;53.046;5.668;2022-10-18T18:31:52;103161.59;;;11.90;90.85
67099;BME280;54288;53.046;5.668;2022-10-18T18:34:18;103149.22;;;11.77;91.09
67099;BME280;54288;53.046;5.668;2022-10-18T18:36:45;103157.97;;;11.78;91.16
67099;BME280;54288;53.046;5.668;2022-10-18T18:39:38;103157.97;;;11.79;91.89
67099;BME280;54288;53.046;5.668;2022-10-18T18:42:05;103173.84;;;11.91;90.99
67099;BME280;54288;53.046;5.668;2022-10-18T18:44:31;103186.22;;;11.98;89.88
67099;BME280;54288;53.046;5.668;2022-10-18T18:46:59;103172.16;;;11.93;91.23
67099;BME280;54288;53.046;5.668;2022-10-18T18:49:25;103182.66;;;11.96;92.19
67099;BME280;54288;53.046;5.668;2022-10-18T18:51:56;103162.44;;;11.86;92.66
67099;BME280;54288;53.046;5.668;2022-10-18T18:54:22;103188.78;;;11.92;93.32
67099;BME280;54288;53.046;5.668;2022-10-18T18:56:49;103186.97;;;11.88;93.09
67099;BME280;54288;53.046;5.668;2022-10-18T18:59:15;103174.72;;;11.87;92.49
67099;BME280;54288;53.046;5.668;2022-10-18T19:01:42;103179.03;;;11.85;92.59
67099;BME280;54288;53.046;5.668;2022-10-18T19:04:08;103182.50;;;11.82;92.44
67099;BME280;54288;53.046;5.668;2022-10-18T19:06:37;103169.38;;;11.81;92.67
67099;BME280;54288;53.046;5.668;2022-10-18T19:09:08;103170.28;;;11.83;92.40
67099;BME280;54288;53.046;5.668;2022-10-18T19:11:38;103172.03;;;11.81;92.55
67099;BME280;54288;53.046;5.668;2022-10-18T19:14:06;103157.91;;;11.73;92.40
67099;BME280;54288;53.046;5.668;2022-10-18T19:19:16;103133.28;;;11.61;93.16
67099;BME280;54288;53.046;5.668;2022-10-18T19:21:45;103158.84;;;11.78;93.32
67099;BME280;54288;53.046;5.668;2022-10-18T19:24:11;103155.31;;;11.76;92.64
67099;BME280;54288;53.046;5.668;2022-10-18T19:26:41;103146.50;;;11.70;93.08
67099;BME280;54288;53.046;5.668;2022-10-18T19:29:45;103146.47;;;11.68;93.23
67099;BME280;54288;53.046;5.668;2022-10-18T19:32:13;103152.63;;;11.70;92.15
67099;BME280;54288;53.046;5.668;2022-10-18T19:34:42;103149.09;;;11.68;91.64
67099;BME280;54288;53.046;5.668;2022-10-18T19:37:11;103146.41;;;11.61;91.20
67099;BME280;54288;53.046;5.668;2022-10-18T19:39:37;103134.88;;;11.52;90.98
67099;BME280;54288;53.046;5.668;2022-10-18T19:42:06;103134.00;;;11.51;91.04
67099;BME280;54288;53.046;5.668;2022-10-18T19:44:34;103141.63;;;11.34;92.36
67099;BME280;54288;53.046;5.668;2022-10-18T19:47:01;103145.03;;;11.24;93.33
67099;BME280;54288;53.046;5.668;2022-10-18T19:49:27;103143.03;;;11.08;93.14
67099;BME280;54288;53.046;5.668;2022-10-18T19:51:54;103145.56;;;11.02;93.72
67099;BME280;54288;53.046;5.668;2022-10-18T19:54:19;103163.22;;;11.12;94.72
67099;BME280;54288;53.046;5.668;2022-10-18T19:56:46;103171.03;;;11.09;94.79
67099;BME280;54288;53.046;5.668;2022-10-18T20:12:27;103164.66;;;10.92;96.04
67099;BME280;54288;53.046;5.668;2022-10-18T20:15:36;103151.50;;;10.91;96.10
67099;BME280;54288;53.046;5.668;2022-10-18T20:21:30;103181.56;;;11.14;95.92
67099;BME280;54288;53.046;5.668;2022-10-18T20:27:03;103152.88;;;11.26;93.00
67099;BME280;54288;53.046;5.668;2022-10-18T20:29:29;103187.97;;;11.32;93.80
67099;BME280;54288;53.046;5.668;2022-10-18T20:35:16;103141.44;;;11.19;94.55
67099;BME280;54288;53.046;5.668;2022-10-18T20:37:42;103167.09;;;11.40;95.59
67099;BME280;54288;53.046;5.668;2022-10-18T20:45:59;103181.31;;;11.58;95.39
67099;BME280;54288;53.046;5.668;2022-10-18T20:48:26;103165.63;;;11.61;95.86
67099;BME280;54288;53.046;5.668;2022-10-18T20:50:52;103170.88;;;11.61;95.39
67099;BME280;54288;53.046;5.668;2022-10-18T20:53:18;103151.53;;;11.55;95.49
67099;BME280;54288;53.046;5.668;2022-10-18T20:55:44;103166.41;;;11.57;95.46
67099;BME280;54288;53.046;5.668;2022-10-18T20:58:10;103169.03;;;11.57;97.18
67099;BME280;54288;53.046;5.668;2022-10-18T21:00:36;103175.13;;;11.53;96.09
67099;BME280;54288;53.046;5.668;2022-10-18T21:03:02;103165.41;;;11.48;96.58
67099;BME280;54288;53.046;5.668;2022-10-18T21:05:29;103164.53;;;11.46;97.25
67099;BME280;54288;53.046;5.668;2022-10-18T21:07:55;103184.75;;;11.54;97.57
67099;BME280;54288;53.046;5.668;2022-10-18T21:10:21;103186.41;;;11.46;98.42
67099;BME280;54288;53.046;5.668;2022-10-18T21:12:47;103175.00;;;11.44;98.05
67099;BME280;54288;53.046;5.668;2022-10-18T21:15:14;103200.34;;;11.42;98.57
67099;BME280;54288;53.046;5.668;2022-10-18T21:17:39;103188.97;;;11.42;98.11
67099;BME280;54288;53.046;5.668;2022-10-18T21:20:06;103187.94;;;11.31;98.75
67099;BME280;54288;53.046;5.668;2022-10-18T21:22:32;103208.22;;;11.42;98.21
67099;BME280;54288;53.046;5.668;2022-10-18T21:24:57;103170.31;;;11.19;98.38
67099;BME280;54288;53.046;5.668;2022-10-18T21:27:43;103188.78;;;11.28;97.83
67099;BME280;54288;53.046;5.668;2022-10-18T21:39:44;103178.53;;;10.85;99.06
67099;BME280;54288;53.046;5.668;2022-10-18T21:42:10;103167.97;;;10.81;98.96
67099;BME280;54288;53.046;5.668;2022-10-18T21:48:02;103184.44;;;10.74;100.00
67099;BME280;54288;53.046;5.668;2022-10-18T23:27:42;103138.59;;;8.09;100.00
67099;BME280;54288;53.046;5.668;2022-10-18T23:30:41;103145.06;;;8.22;100.00
67099;BME280;54288;53.046;5.668;2022-10-18T23:33:13;103128.09;;;8.06;100.00
67099;BME280;54288;53.046;5.668;2022-10-18T23:35:52;103134.91;;;8.01;100.00
67099;BME280;54288;53.046;5.668;2022-10-18T23:38:23;103159.41;;;8.06;100.00
67099;BME280;54288;53.046;5.668;2022-10-18T23:41:21;103153.25;;;8.04;100.00